Marco Polo — BR2031 — position and weather

sailwx.info

Track history (hours):
 
Tides and Currents Weather Stations Pressure Air Temp Water Temp Dewpoint Dewpoint Depression Visibility Wind Speed Wind Dir Waves Ship Positions

Marco Polo

Last reported at 2015-Aug-30 08:13 UTC. Time now 2015-Aug-31 02:40 UTC.
Position N 24°25' E 118°17'.

Length 32 m.

MMSI: 416000256.

Date/timePositionNaut miles runAvg speedWind from/ knotsBaromVisibWave heightAir tempDewpointWater temp
2015-Aug-30 08:13N 24°25' E 118°17'6 9.8
2015-Aug-30 07:33N 24°31' E 118°14'1 0.8
2015-Aug-30 06:33N 24°31' E 118°13'8 7.4
2015-Aug-30 05:32N 24°25' E 118°17'0 0.1
2015-Aug-30 04:33N 24°25' E 118°17'0 0.0
2015-Aug-30 03:33N 24°25' E 118°17'1 1.1
2015-Aug-30 02:33N 24°26' E 118°17'7 7.3
2015-Aug-30 01:33N 24°32' E 118°12'8 8.0
2015-Aug-30 00:32N 24°25' E 118°17'0 0.0
2015-Aug-29 23:32N 24°25' E 118°17'0 0.0
2015-Aug-29 22:32N 24°25' E 118°17'0 0.0
2015-Aug-29 21:33N 24°25' E 118°17'0 0.0
2015-Aug-29 20:32N 24°25' E 118°17'0 0.0
2015-Aug-29 19:32N 24°25' E 118°17'0 0.0
2015-Aug-29 18:33N 24°25' E 118°17'0 0.0
2015-Aug-29 17:33N 24°25' E 118°17'0 0.0
2015-Aug-29 16:29N 24°25' E 118°17'0 0.0
2015-Aug-29 15:31N 24°25' E 118°17'0 0.0
2015-Aug-29 14:32N 24°25' E 118°17'0 0.0
2015-Aug-29 10:33N 24°25' E 118°17'9 7.5
2015-Aug-29 09:21N 24°32' E 118°11'910.6
2015-Aug-29 08:32N 24°25' E 118°17'0 0.3
2015-Aug-29 07:33N 24°25' E 118°17'8 8.1
2015-Aug-29 06:33N 24°32' E 118°12'1 0.8
2015-Aug-29 05:31N 24°31' E 118°13'7 6.8
2015-Aug-29 04:26N 24°25' E 118°17'8 8.7
2015-Aug-29 03:33N 24°31' E 118°13'1 0.7
2015-Aug-29 02:33N 24°32' E 118°12'8 8.2
2015-Aug-29 01:33N 24°25' E 118°17'0 0.0
2015-Aug-28 19:33N 24°25' E 118°17'0 0.0
2015-Aug-28 18:32N 24°25' E 118°17'0 0.0
2015-Aug-28 17:33N 24°25' E 118°17'0 0.0
2015-Aug-28 16:34N 24°25' E 118°17'0 0.0
2015-Aug-28 15:33N 24°25' E 118°17'0 0.0
2015-Aug-28 14:33N 24°25' E 118°17'0 0.0
2015-Aug-28 10:21N 24°25' E 118°17'0 0.0
2015-Aug-28 09:32N 24°25' E 118°17'9 8.9
2015-Aug-28 08:31N 24°32' E 118°11'9 9.2
2015-Aug-28 07:33N 24°25' E 118°17'0 0.4
2015-Aug-28 06:27N 24°25' E 118°17'0 0.0
2015-Aug-28 05:33N 24°25' E 118°17'0 0.0
2015-Aug-28 04:33N 24°25' E 118°17'0 0.0
2015-Aug-28 03:32N 24°25' E 118°17'0 0.0
2015-Aug-28 02:30N 24°25' E 118°17'0 0.2
2015-Aug-28 01:31N 24°25' E 118°17'9 9.1
2015-Aug-28 00:33N 24°32' E 118°11'9 1.8
2015-Aug-27 19:30N 24°25' E 118°17'0 0.0
2015-Aug-27 17:29N 24°25' E 118°17'9 1.3
2015-Aug-27 10:33N 24°32' E 118°11'9 9.1
2015-Aug-27 09:33N 24°25' E 118°17'0 0.1
2015-Aug-27 08:33N 24°25' E 118°17'0 0.0
2015-Aug-27 07:21N 24°25' E 118°17'7 9.1
2015-Aug-27 06:33N 24°31' E 118°13'1 0.6
2015-Aug-27 05:33N 24°32' E 118°13'8 7.5
2015-Aug-27 04:30N 24°25' E 118°17'0 0.0
2015-Aug-26 09:32N 24°25' E 118°17'9 9.1
2015-Aug-26 08:33N 24°32' E 118°11'8 7.7
2015-Aug-26 07:31N 24°26' E 118°17'1 1.4
2015-Aug-26 06:30N 24°25' E 118°17'1 0.4
2015-Aug-26 02:33N 24°26' E 118°17'6 5.4
2015-Aug-26 01:29N 24°31' E 118°14'7 7.4
2015-Aug-26 00:33N 24°25' E 118°17'0 0.0
2015-Aug-25 23:33N 24°25' E 118°17'0 0.0
2015-Aug-25 22:32N 24°25' E 118°17'0 0.0
2015-Aug-25 21:33N 24°25' E 118°17'0 0.0
2015-Aug-25 20:33N 24°25' E 118°17'0 0.0
2015-Aug-25 19:32N 24°25' E 118°17'0 0.0
2015-Aug-25 18:30N 24°25' E 118°17'0 0.0
2015-Aug-25 17:28N 24°25' E 118°17'0 0.0
2015-Aug-25 16:33N 24°25' E 118°17'0 0.0
2015-Aug-25 15:33N 24°25' E 118°17'0 0.0
2015-Aug-25 14:32N 24°25' E 118°17'0 0.0
2015-Aug-25 10:32N 24°25' E 118°17'9 8.6
2015-Aug-25 09:29N 24°32' E 118°11'9 9.5
2015-Aug-25 08:33N 24°25' E 118°17'0 0.1
2015-Aug-25 07:33N 24°25' E 118°17'0 0.0
2015-Aug-25 06:21N 24°25' E 118°17'810.1
2015-Aug-25 05:33N 24°32' E 118°12'1 0.9
2015-Aug-25 04:33N 24°31' E 118°13'7 7.4
2015-Aug-25 03:33N 24°25' E 118°17'0 0.1
2015-Aug-25 00:13N 24°25' E 118°17'0 0.0
2015-Aug-24 23:07N 24°25' E 118°17'7 0.6
2015-Aug-24 10:32N 24°32' E 118°13'8 7.4
2015-Aug-24 09:30N 24°25' E 118°17'0 0.2
2015-Aug-24 08:33N 24°25' E 118°17'8 7.8
2015-Aug-24 07:33N 24°32' E 118°13'0 0.1
2015-Aug-24 06:33N 24°32' E 118°13'8 8.0
2015-Aug-24 05:33N 24°25' E 118°17'0 0.0
2015-Aug-24 04:33N 24°25' E 118°17'9 9.1
2015-Aug-24 03:33N 24°32' E 118°11'1 1.4
2015-Aug-24 02:33N 24°32' E 118°13'8 7.9
2015-Aug-24 01:33N 24°25' E 118°17'0 0.0
2015-Aug-23 06:22N 24°25' E 118°17'8 9.5
2015-Aug-23 05:33N 24°32' E 118°12'1 1.3
2015-Aug-23 04:29N 24°31' E 118°14'7 7.4
2015-Aug-23 03:33N 24°25' E 118°17'0 0.1
2015-Aug-23 02:33N 24°25' E 118°17'0 0.0
2015-Aug-23 01:33N 24°25' E 118°17'8 7.7
2015-Aug-23 00:33N 24°32' E 118°13'8 7.7
2015-Aug-22 23:33N 24°25' E 118°17'0 0.0
2015-Aug-22 22:31N 24°25' E 118°17'0 0.0
2015-Aug-22 21:33N 24°25' E 118°17'0 0.0
2015-Aug-22 20:33N 24°25' E 118°17'0 0.0
2015-Aug-22 19:32N 24°25' E 118°17'0 0.0
2015-Aug-22 18:33N 24°25' E 118°17'7 0.9
2015-Aug-22 10:32N 24°31' E 118°13'7 7.2
2015-Aug-22 09:32N 24°25' E 118°17'0 0.2
2015-Aug-22 07:21N 24°25' E 118°17'8 9.6
2015-Aug-22 06:33N 24°32' E 118°12'0 0.4
2015-Aug-22 05:33N 24°32' E 118°12'8 8.3
2015-Aug-22 04:33N 24°25' E 118°17'0 0.0
2015-Aug-21 08:20N 24°25' E 118°17'810.1
2015-Aug-21 07:33N 24°32' E 118°12'0 0.3
2015-Aug-21 06:33N 24°32' E 118°13'8 7.9
2015-Aug-21 05:33N 24°25' E 118°17'4 1.4
2015-Aug-21 02:28N 24°29' E 118°16'3 2.9
2015-Aug-21 01:31N 24°31' E 118°14'7 7.0
2015-Aug-21 00:32N 24°25' E 118°17'0 0.0
2015-Aug-20 23:33N 24°25' E 118°17'0 0.0
2015-Aug-20 22:33N 24°25' E 118°17'0 0.0
2015-Aug-20 21:32N 24°25' E 118°17'0 0.0
2015-Aug-20 20:33N 24°25' E 118°17'0 0.0
2015-Aug-20 19:33N 24°25' E 118°17'0 0.0
2015-Aug-20 18:33N 24°25' E 118°17'0 0.0
2015-Aug-20 17:32N 24°25' E 118°17'0 0.0
2015-Aug-20 16:31N 24°25' E 118°17'0 0.0
2015-Aug-20 15:33N 24°25' E 118°17'0 0.0
2015-Aug-20 14:31N 24°25' E 118°17'1 0.2
2015-Aug-20 10:33N 24°26' E 118°17'8 8.2
2015-Aug-20 09:33N 24°32' E 118°11'9 8.6
2015-Aug-20 08:30N 24°25' E 118°17'  
Track history (hours):
 
Tides and Currents Weather Stations Pressure Air Temp Water Temp Dewpoint Dewpoint Depression Visibility Wind Speed Wind Dir Waves Ship Positions

Marco Polo

Last reported at 2015-Aug-30 08:13 UTC. Time now 2015-Aug-31 02:40 UTC.
Position N 24°25' E 118°17'.

Length 32 m.

MMSI: 416000256.

Date/timePositionNaut miles runAvg speedWind from/ knotsBaromVisibWave heightAir tempDewpointWater temp
2015-Aug-30 08:13N 24°25' E 118°17'6 9.8
2015-Aug-30 07:33N 24°31' E 118°14'1 0.8
2015-Aug-30 06:33N 24°31' E 118°13'8 7.4
2015-Aug-30 05:32N 24°25' E 118°17'0 0.1
2015-Aug-30 04:33N 24°25' E 118°17'0 0.0
2015-Aug-30 03:33N 24°25' E 118°17'1 1.1
2015-Aug-30 02:33N 24°26' E 118°17'7 7.3
2015-Aug-30 01:33N 24°32' E 118°12'8 8.0
2015-Aug-30 00:32N 24°25' E 118°17'0 0.0
2015-Aug-29 23:32N 24°25' E 118°17'0 0.0
2015-Aug-29 22:32N 24°25' E 118°17'0 0.0
2015-Aug-29 21:33N 24°25' E 118°17'0 0.0
2015-Aug-29 20:32N 24°25' E 118°17'0 0.0
2015-Aug-29 19:32N 24°25' E 118°17'0 0.0
2015-Aug-29 18:33N 24°25' E 118°17'0 0.0
2015-Aug-29 17:33N 24°25' E 118°17'0 0.0
2015-Aug-29 16:29N 24°25' E 118°17'0 0.0
2015-Aug-29 15:31N 24°25' E 118°17'0 0.0
2015-Aug-29 14:32N 24°25' E 118°17'0 0.0
2015-Aug-29 10:33N 24°25' E 118°17'9 7.5
2015-Aug-29 09:21N 24°32' E 118°11'910.6
2015-Aug-29 08:32N 24°25' E 118°17'0 0.3
2015-Aug-29 07:33N 24°25' E 118°17'8 8.1
2015-Aug-29 06:33N 24°32' E 118°12'1 0.8
2015-Aug-29 05:31N 24°31' E 118°13'7 6.8
2015-Aug-29 04:26N 24°25' E 118°17'8 8.7
2015-Aug-29 03:33N 24°31' E 118°13'1 0.7
2015-Aug-29 02:33N 24°32' E 118°12'8 8.2
2015-Aug-29 01:33N 24°25' E 118°17'0 0.0
2015-Aug-28 19:33N 24°25' E 118°17'0 0.0
2015-Aug-28 18:32N 24°25' E 118°17'0 0.0
2015-Aug-28 17:33N 24°25' E 118°17'0 0.0
2015-Aug-28 16:34N 24°25' E 118°17'0 0.0
2015-Aug-28 15:33N 24°25' E 118°17'0 0.0
2015-Aug-28 14:33N 24°25' E 118°17'0 0.0
2015-Aug-28 10:21N 24°25' E 118°17'0 0.0
2015-Aug-28 09:32N 24°25' E 118°17'9 8.9
2015-Aug-28 08:31N 24°32' E 118°11'9 9.2
2015-Aug-28 07:33N 24°25' E 118°17'0 0.4
2015-Aug-28 06:27N 24°25' E 118°17'0 0.0
2015-Aug-28 05:33N 24°25' E 118°17'0 0.0
2015-Aug-28 04:33N 24°25' E 118°17'0 0.0
2015-Aug-28 03:32N 24°25' E 118°17'0 0.0
2015-Aug-28 02:30N 24°25' E 118°17'0 0.2
2015-Aug-28 01:31N 24°25' E 118°17'9 9.1
2015-Aug-28 00:33N 24°32' E 118°11'9 1.8
2015-Aug-27 19:30N 24°25' E 118°17'0 0.0
2015-Aug-27 17:29N 24°25' E 118°17'9 1.3
2015-Aug-27 10:33N 24°32' E 118°11'9 9.1
2015-Aug-27 09:33N 24°25' E 118°17'0 0.1
2015-Aug-27 08:33N 24°25' E 118°17'0 0.0
2015-Aug-27 07:21N 24°25' E 118°17'7 9.1
2015-Aug-27 06:33N 24°31' E 118°13'1 0.6
2015-Aug-27 05:33N 24°32' E 118°13'8 7.5
2015-Aug-27 04:30N 24°25' E 118°17'0 0.0
2015-Aug-26 09:32N 24°25' E 118°17'9 9.1
2015-Aug-26 08:33N 24°32' E 118°11'8 7.7
2015-Aug-26 07:31N 24°26' E 118°17'1 1.4
2015-Aug-26 06:30N 24°25' E 118°17'1 0.4
2015-Aug-26 02:33N 24°26' E 118°17'6 5.4
2015-Aug-26 01:29N 24°31' E 118°14'7 7.4
2015-Aug-26 00:33N 24°25' E 118°17'0 0.0
2015-Aug-25 23:33N 24°25' E 118°17'0 0.0
2015-Aug-25 22:32N 24°25' E 118°17'0 0.0
2015-Aug-25 21:33N 24°25' E 118°17'0 0.0
2015-Aug-25 20:33N 24°25' E 118°17'0 0.0
2015-Aug-25 19:32N 24°25' E 118°17'0 0.0
2015-Aug-25 18:30N 24°25' E 118°17'0 0.0
2015-Aug-25 17:28N 24°25' E 118°17'0 0.0
2015-Aug-25 16:33N 24°25' E 118°17'0 0.0
2015-Aug-25 15:33N 24°25' E 118°17'0 0.0
2015-Aug-25 14:32N 24°25' E 118°17'0 0.0
2015-Aug-25 10:32N 24°25' E 118°17'9 8.6
2015-Aug-25 09:29N 24°32' E 118°11'9 9.5
2015-Aug-25 08:33N 24°25' E 118°17'0 0.1
2015-Aug-25 07:33N 24°25' E 118°17'0 0.0
2015-Aug-25 06:21N 24°25' E 118°17'810.1
2015-Aug-25 05:33N 24°32' E 118°12'1 0.9
2015-Aug-25 04:33N 24°31' E 118°13'7 7.4
2015-Aug-25 03:33N 24°25' E 118°17'0 0.1
2015-Aug-25 00:13N 24°25' E 118°17'0 0.0
2015-Aug-24 23:07N 24°25' E 118°17'7 0.6
2015-Aug-24 10:32N 24°32' E 118°13'8 7.4
2015-Aug-24 09:30N 24°25' E 118°17'0 0.2
2015-Aug-24 08:33N 24°25' E 118°17'8 7.8
2015-Aug-24 07:33N 24°32' E 118°13'0 0.1
2015-Aug-24 06:33N 24°32' E 118°13'8 8.0
2015-Aug-24 05:33N 24°25' E 118°17'0 0.0
2015-Aug-24 04:33N 24°25' E 118°17'9 9.1
2015-Aug-24 03:33N 24°32' E 118°11'1 1.4
2015-Aug-24 02:33N 24°32' E 118°13'8 7.9
2015-Aug-24 01:33N 24°25' E 118°17'0 0.0
2015-Aug-23 06:22N 24°25' E 118°17'8 9.5
2015-Aug-23 05:33N 24°32' E 118°12'1 1.3
2015-Aug-23 04:29N 24°31' E 118°14'7 7.4
2015-Aug-23 03:33N 24°25' E 118°17'0 0.1
2015-Aug-23 02:33N 24°25' E 118°17'0 0.0
2015-Aug-23 01:33N 24°25' E 118°17'8 7.7
2015-Aug-23 00:33N 24°32' E 118°13'8 7.7
2015-Aug-22 23:33N 24°25' E 118°17'0 0.0
2015-Aug-22 22:31N 24°25' E 118°17'0 0.0
2015-Aug-22 21:33N 24°25' E 118°17'0 0.0
2015-Aug-22 20:33N 24°25' E 118°17'0 0.0
2015-Aug-22 19:32N 24°25' E 118°17'0 0.0
2015-Aug-22 18:33N 24°25' E 118°17'7 0.9
2015-Aug-22 10:32N 24°31' E 118°13'7 7.2
2015-Aug-22 09:32N 24°25' E 118°17'0 0.2
2015-Aug-22 07:21N 24°25' E 118°17'8 9.6
2015-Aug-22 06:33N 24°32' E 118°12'0 0.4
2015-Aug-22 05:33N 24°32' E 118°12'8 8.3
2015-Aug-22 04:33N 24°25' E 118°17'0 0.0
2015-Aug-21 08:20N 24°25' E 118°17'810.1
2015-Aug-21 07:33N 24°32' E 118°12'0 0.3
2015-Aug-21 06:33N 24°32' E 118°13'8 7.9
2015-Aug-21 05:33N 24°25' E 118°17'4 1.4
2015-Aug-21 02:28N 24°29' E 118°16'3 2.9
2015-Aug-21 01:31N 24°31' E 118°14'7 7.0
2015-Aug-21 00:32N 24°25' E 118°17'0 0.0
2015-Aug-20 23:33N 24°25' E 118°17'0 0.0
2015-Aug-20 22:33N 24°25' E 118°17'0 0.0
2015-Aug-20 21:32N 24°25' E 118°17'0 0.0
2015-Aug-20 20:33N 24°25' E 118°17'0 0.0
2015-Aug-20 19:33N 24°25' E 118°17'0 0.0
2015-Aug-20 18:33N 24°25' E 118°17'0 0.0
2015-Aug-20 17:32N 24°25' E 118°17'0 0.0
2015-Aug-20 16:31N 24°25' E 118°17'0 0.0
2015-Aug-20 15:33N 24°25' E 118°17'0 0.0
2015-Aug-20 14:31N 24°25' E 118°17'1 0.2
2015-Aug-20 10:33N 24°26' E 118°17'8 8.2
2015-Aug-20 09:33N 24°32' E 118°11'9 8.6
2015-Aug-20 08:30N 24°25' E 118°17'  

Dump ship's entire track history